createdAt,value
2019-04-16T00:02:24.345Z,9.20
2019-04-16T00:05:15.783Z,9.20
2019-04-16T00:08:19.387Z,9.20
2019-04-16T00:10:48.469Z,9.10
2019-04-16T00:13:20.621Z,9.20
2019-04-16T00:15:50.201Z,9.10
2019-04-16T00:18:19.526Z,9.10
2019-04-16T00:20:59.187Z,9.00
2019-04-16T00:23:39.014Z,9.00
2019-04-16T00:26:07.998Z,9.00
2019-04-16T00:28:36.848Z,9.00
2019-04-16T00:31:06.415Z,9.00
2019-04-16T00:33:36.101Z,9.00
2019-04-16T00:36:05.881Z,9.00
2019-04-16T00:38:40.889Z,8.90
2019-04-16T00:41:07.096Z,8.90
2019-04-16T00:43:37.914Z,8.90
2019-04-16T00:46:11.474Z,8.80
2019-04-16T00:48:42.144Z,8.80
2019-04-16T00:51:14.928Z,8.70
2019-04-16T00:53:44.765Z,8.70
2019-04-16T00:56:16.222Z,8.70
2019-04-16T00:58:45.537Z,8.70
2019-04-16T01:01:15.107Z,8.70
2019-04-16T01:03:46.806Z,8.60
2019-04-16T01:06:16.605Z,8.60
2019-04-16T01:08:54.432Z,8.60
2019-04-16T01:11:17.478Z,8.60
2019-04-16T01:13:47.735Z,8.50
2019-04-16T01:16:18.225Z,8.50
2019-04-16T01:18:48.000Z,8.50
2019-04-16T01:21:21.007Z,8.50
2019-04-16T01:23:50.476Z,8.50
2019-04-16T01:26:20.151Z,8.50
2019-04-16T01:29:04.152Z,8.40
2019-04-16T01:32:12.052Z,8.40
2019-04-16T01:35:00.489Z,8.40
2019-04-16T01:37:56.820Z,8.30
2019-04-16T01:40:47.316Z,8.30
2019-04-16T01:43:16.811Z,8.30
2019-04-16T01:45:46.971Z,8.30
2019-04-16T01:48:16.756Z,8.20
2019-04-16T01:50:46.582Z,8.30
2019-04-16T01:53:18.368Z,8.20
2019-04-16T01:55:47.381Z,8.20
2019-04-16T01:58:17.018Z,8.20
2019-04-16T02:00:49.434Z,8.20
2019-04-16T02:03:18.644Z,8.20
2019-04-16T02:05:49.449Z,8.10
2019-04-16T02:08:20.645Z,8.10
2019-04-16T02:10:50.106Z,8.20
2019-04-16T02:13:20.298Z,8.20
2019-04-16T02:15:50.671Z,8.20
2019-04-16T02:18:21.624Z,8.10
2019-04-16T02:20:51.306Z,8.10
2019-04-16T02:23:22.196Z,8.10
2019-04-16T02:25:52.004Z,8.10
2019-04-16T02:28:22.584Z,8.10
2019-04-16T02:30:52.251Z,8.00
2019-04-16T02:33:21.985Z,8.00
2019-04-16T02:35:52.062Z,8.00
2019-04-16T02:38:21.723Z,8.00
2019-04-16T02:40:53.119Z,7.90
2019-04-16T02:43:22.778Z,7.90
2019-04-16T02:45:56.813Z,7.90
2019-04-16T02:48:23.421Z,7.90
2019-04-16T02:50:56.533Z,7.80
2019-04-16T02:53:44.034Z,7.80
2019-04-16T02:56:51.412Z,7.80
2019-04-16T02:59:23.208Z,7.80
2019-04-16T03:02:23.043Z,7.70
2019-04-16T03:05:01.154Z,7.70
2019-04-16T03:07:32.828Z,7.70
2019-04-16T03:10:02.792Z,7.70
2019-04-16T03:12:33.391Z,7.70
2019-04-16T03:15:02.881Z,7.70
2019-04-16T03:17:35.947Z,7.60
2019-04-16T03:20:06.670Z,7.60
2019-04-16T03:22:36.290Z,7.60
2019-04-16T03:25:12.363Z,7.60
2019-04-16T03:27:38.035Z,7.50
2019-04-16T03:30:08.130Z,7.50
2019-04-16T03:32:51.075Z,7.50
2019-04-16T03:35:25.422Z,7.50
2019-04-16T03:37:51.977Z,7.50
2019-04-16T03:40:24.617Z,7.40
2019-04-16T03:42:52.462Z,7.40
2019-04-16T03:45:22.172Z,7.40
2019-04-16T03:47:52.375Z,7.40
2019-04-16T03:50:22.131Z,7.30
2019-04-16T03:52:53.225Z,7.30
2019-04-16T03:55:26.282Z,7.30
2019-04-16T03:57:54.659Z,7.20
2019-04-16T04:00:24.399Z,7.20
2019-04-16T04:02:55.406Z,7.20
2019-04-16T04:05:25.729Z,7.10
2019-04-16T04:07:55.751Z,7.10
2019-04-16T04:10:30.987Z,7.00
2019-04-16T04:12:56.100Z,7.00
2019-04-16T04:15:27.109Z,7.00
2019-04-16T04:17:57.122Z,7.00
2019-04-16T04:20:29.865Z,7.00
2019-04-16T04:22:59.561Z,6.90
2019-04-16T04:25:30.070Z,6.90
2019-04-16T04:27:59.474Z,6.90
2019-04-16T04:30:29.656Z,6.90
2019-04-16T04:32:59.548Z,6.90
2019-04-16T04:35:28.889Z,6.90
2019-04-16T04:38:02.677Z,6.90
2019-04-16T04:40:43.494Z,6.90
2019-04-16T04:43:01.739Z,6.90
2019-04-16T04:45:32.020Z,6.80
2019-04-16T04:48:01.389Z,6.80
2019-04-16T04:50:32.463Z,6.80
2019-04-16T04:53:02.106Z,6.80
2019-04-16T04:55:35.231Z,6.80
2019-04-16T04:58:04.506Z,6.80
2019-04-16T05:00:33.474Z,6.90
2019-04-16T05:03:02.872Z,6.90
2019-04-16T05:05:42.945Z,6.90
2019-04-16T05:08:18.213Z,6.90
2019-04-16T05:10:58.387Z,6.90
2019-04-16T05:13:23.896Z,6.90
2019-04-16T05:15:53.858Z,6.90
2019-04-16T05:18:23.495Z,7.00
2019-04-16T05:20:54.146Z,7.00
2019-04-16T05:23:28.795Z,7.10
2019-04-16T05:25:58.640Z,7.10
2019-04-16T05:28:28.893Z,7.20
2019-04-16T05:31:00.443Z,7.30
2019-04-16T05:33:29.997Z,7.30
2019-04-16T05:36:02.686Z,7.40
2019-04-16T05:38:32.753Z,7.40
2019-04-16T05:41:13.049Z,7.50
2019-04-16T05:43:36.834Z,7.60
2019-04-16T05:46:08.948Z,7.60
2019-04-16T05:48:36.893Z,7.70
2019-04-16T05:51:06.121Z,7.80
2019-04-16T05:53:40.175Z,7.80
2019-04-16T05:56:34.118Z,7.90
2019-04-16T05:59:03.408Z,8.00
2019-04-16T06:01:42.467Z,8.10
2019-04-16T06:04:12.910Z,8.10
2019-04-16T06:06:42.143Z,8.20
2019-04-16T06:09:12.347Z,8.30
2019-04-16T06:11:42.568Z,8.50
2019-04-16T06:14:25.723Z,8.50
2019-04-16T06:17:12.948Z,8.60
2019-04-16T06:19:57.274Z,8.70
2019-04-16T06:22:32.199Z,8.80
2019-04-16T06:25:19.373Z,8.80
2019-04-16T06:28:08.487Z,8.90
2019-04-16T06:30:51.518Z,9.00
2019-04-16T06:33:42.389Z,9.10
2019-04-16T06:36:33.950Z,9.20
2019-04-16T06:39:22.220Z,9.30
2019-04-16T06:42:06.503Z,9.40
2019-04-16T06:44:42.903Z,9.50
2019-04-16T06:47:43.089Z,9.60
2019-04-16T06:50:39.520Z,9.70
2019-04-16T06:53:26.566Z,9.80
2019-04-16T06:56:20.721Z,9.90
2019-04-16T06:59:11.451Z,10.00
2019-04-16T07:01:58.728Z,10.10
2019-04-16T07:04:45.418Z,10.10
2019-04-16T07:07:46.206Z,10.30
2019-04-16T07:10:16.813Z,10.40
2019-04-16T07:12:45.884Z,10.50
2019-04-16T07:15:14.926Z,10.60
2019-04-16T07:17:44.190Z,10.70
2019-04-16T07:20:14.279Z,10.80
2019-04-16T07:22:43.459Z,10.90
2019-04-16T07:25:12.864Z,11.10
2019-04-16T07:28:01.083Z,11.20
2019-04-16T07:30:38.407Z,11.30
2019-04-16T07:33:25.334Z,11.40
2019-04-16T07:36:12.697Z,11.60
2019-04-16T07:41:47.467Z,11.80
2019-04-16T07:44:39.317Z,11.90
2019-04-16T07:47:19.651Z,12.20
2019-04-16T07:49:51.080Z,12.40
2019-04-16T07:52:45.531Z,12.60
2019-04-16T07:55:49.660Z,12.80
2019-04-16T07:58:19.267Z,13.00
2019-04-16T08:00:49.553Z,13.20
2019-04-16T08:03:19.555Z,13.30
2019-04-16T08:05:49.914Z,13.30
2019-04-16T08:08:24.371Z,13.40
2019-04-16T08:10:51.131Z,13.50
2019-04-16T08:13:21.102Z,13.60
2019-04-16T08:15:50.300Z,13.60
2019-04-16T08:18:21.254Z,13.70
2019-04-16T08:21:01.217Z,13.80
2019-04-16T08:23:39.606Z,13.90
2019-04-16T08:26:13.083Z,14.00
2019-04-16T08:28:40.685Z,14.10
2019-04-16T08:31:14.360Z,14.30
2019-04-16T08:33:43.363Z,14.40
2019-04-16T08:36:12.663Z,14.60
2019-04-16T08:38:41.540Z,14.70
2019-04-16T08:41:12.767Z,14.80
2019-04-16T08:43:41.823Z,15.00
2019-04-16T08:46:11.564Z,15.10
2019-04-16T08:48:41.066Z,15.20
2019-04-16T08:51:10.407Z,15.30
2019-04-16T08:53:39.394Z,15.30
2019-04-16T08:56:08.313Z,15.40
2019-04-16T08:58:38.553Z,15.50
2019-04-16T09:01:09.942Z,15.50
2019-04-16T09:03:38.915Z,15.60
2019-04-16T09:06:13.177Z,15.60
2019-04-16T09:09:14.008Z,15.70
2019-04-16T09:11:39.803Z,15.80
2019-04-16T09:14:08.862Z,15.90
2019-04-16T09:16:46.154Z,16.00
2019-04-16T09:19:16.661Z,16.10
2019-04-16T09:21:46.135Z,16.20
2019-04-16T09:24:40.462Z,16.20
2019-04-16T09:27:14.689Z,16.30
2019-04-16T09:30:01.464Z,16.40
2019-04-16T09:32:46.985Z,16.50
2019-04-16T09:35:50.465Z,16.60
2019-04-16T09:38:38.629Z,16.60
2019-04-16T09:41:32.958Z,16.60
2019-04-16T09:44:02.141Z,16.70
2019-04-16T09:46:50.392Z,16.80
2019-04-16T09:49:04.898Z,16.80
2019-04-16T09:51:33.128Z,17.00
2019-04-16T09:54:02.665Z,17.10
2019-04-16T09:56:32.529Z,17.20
2019-04-16T09:59:24.773Z,17.20
2019-04-16T10:02:02.058Z,17.30
2019-04-16T10:04:31.227Z,17.30
2019-04-16T10:07:00.422Z,17.30
2019-04-16T10:09:32.668Z,17.30
2019-04-16T10:12:04.947Z,17.40
2019-04-16T10:14:32.922Z,17.50
2019-04-16T10:17:02.400Z,17.60
2019-04-16T10:19:31.371Z,17.70
2019-04-16T10:22:00.937Z,17.80
2019-04-16T10:24:48.496Z,17.90
2019-04-16T10:27:31.282Z,18.00
2019-04-16T10:29:58.274Z,18.10
2019-04-16T10:32:28.671Z,18.10
2019-04-16T10:34:57.679Z,18.20
2019-04-16T10:37:26.807Z,18.40
2019-04-16T10:40:05.015Z,18.50
2019-04-16T10:43:00.298Z,18.60
2019-04-16T10:45:41.776Z,18.70
2019-04-16T10:48:32.171Z,18.80
2019-04-16T10:51:21.601Z,18.90
2019-04-16T10:54:13.138Z,19.00
2019-04-16T10:56:59.711Z,19.10
2019-04-16T10:59:46.592Z,19.10
2019-04-16T11:02:40.812Z,19.20
2019-04-16T11:05:22.476Z,19.40
2019-04-16T11:07:51.975Z,19.40
2019-04-16T11:10:21.709Z,19.50
2019-04-16T11:12:50.888Z,19.50
2019-04-16T11:15:22.604Z,19.60
2019-04-16T11:17:51.559Z,19.70
2019-04-16T11:20:20.520Z,19.80
2019-04-16T11:22:49.785Z,19.90
2019-04-16T11:25:18.994Z,19.90
2019-04-16T11:27:48.274Z,19.90
2019-04-16T11:30:39.178Z,19.90
2019-04-16T11:33:08.516Z,19.90
2019-04-16T11:35:38.024Z,20.00
2019-04-16T11:38:07.126Z,20.10
2019-04-16T11:40:40.728Z,20.10
2019-04-16T11:43:08.278Z,20.10
2019-04-16T11:45:37.250Z,20.10
2019-04-16T11:48:06.338Z,20.10
2019-04-16T11:50:36.378Z,20.10
2019-04-16T11:53:06.182Z,20.20
2019-04-16T11:55:36.766Z,20.30
2019-04-16T12:00:56.432Z,20.60
2019-04-16T12:03:45.734Z,20.70
2019-04-16T12:06:28.763Z,20.80
2019-04-16T12:09:17.472Z,20.90
2019-04-16T12:11:56.413Z,21.00
2019-04-16T12:14:48.551Z,21.10
2019-04-16T12:17:43.932Z,21.20
2019-04-16T12:20:46.319Z,21.10
2019-04-16T12:23:44.087Z,21.10
2019-04-16T12:26:32.274Z,21.10
2019-04-16T12:29:23.177Z,21.20
2019-04-16T12:32:05.236Z,21.30
2019-04-16T12:34:54.208Z,21.40
2019-04-16T12:37:45.556Z,21.60
2019-04-16T12:40:46.772Z,21.60
2019-04-16T12:43:26.305Z,21.60
2019-04-16T12:46:13.713Z,21.70
2019-04-16T12:49:07.305Z,21.70
2019-04-16T12:51:55.615Z,21.70
2019-04-16T12:54:42.454Z,21.80
2019-04-16T12:57:28.979Z,21.90
2019-04-16T13:00:17.498Z,22.00
2019-04-16T13:03:17.554Z,22.00
2019-04-16T13:06:02.495Z,21.90
2019-04-16T13:08:57.172Z,22.00
2019-04-16T13:11:43.852Z,22.10
2019-04-16T13:14:32.011Z,22.10
2019-04-16T13:17:23.188Z,22.10
2019-04-16T13:20:05.653Z,22.10
2019-04-16T13:22:42.393Z,22.20
2019-04-16T13:25:18.460Z,22.20
2019-04-16T13:27:47.838Z,22.10
2019-04-16T13:30:18.363Z,22.10
2019-04-16T13:32:47.758Z,22.10
2019-04-16T13:35:16.851Z,22.20
2019-04-16T13:37:45.773Z,22.30
2019-04-16T13:40:16.538Z,22.20
2019-04-16T13:42:45.826Z,22.20
2019-04-16T13:45:36.217Z,22.10
2019-04-16T13:48:16.438Z,22.10
2019-04-16T13:50:57.123Z,22.10
2019-04-16T13:53:54.613Z,22.10
2019-04-16T13:56:29.689Z,22.20
2019-04-16T13:59:30.181Z,22.40
2019-04-16T14:02:22.911Z,22.50
2019-04-16T14:04:52.127Z,22.50
2019-04-16T14:07:21.194Z,22.50
2019-04-16T14:09:50.618Z,22.40
2019-04-16T14:12:24.481Z,22.40
2019-04-16T14:14:50.360Z,22.40
2019-04-16T14:17:23.508Z,22.40
2019-04-16T14:19:52.563Z,22.40
2019-04-16T14:22:22.498Z,22.50
2019-04-16T14:24:51.667Z,22.40
2019-04-16T14:27:20.871Z,22.50
2019-04-16T14:29:50.164Z,22.50
2019-04-16T14:32:18.995Z,22.50
2019-04-16T14:35:05.237Z,22.50
2019-04-16T14:37:34.550Z,22.40
2019-04-16T14:40:25.404Z,22.30
2019-04-16T14:42:57.574Z,22.20
2019-04-16T14:45:57.384Z,22.10
2019-04-16T14:48:14.505Z,21.90
2019-04-16T14:50:43.644Z,21.70
2019-04-16T14:53:16.351Z,21.60
2019-04-16T14:55:59.682Z,21.50
2019-04-16T14:58:28.224Z,21.50
2019-04-16T15:01:14.906Z,21.40
2019-04-16T15:04:01.852Z,21.30
2019-04-16T15:06:52.911Z,21.30
2019-04-16T15:09:25.721Z,21.30
2019-04-16T15:12:25.822Z,21.30
2019-04-16T15:15:16.936Z,21.30
2019-04-16T15:17:48.732Z,21.20
2019-04-16T15:20:40.132Z,21.20
2019-04-16T15:23:26.611Z,21.30
2019-04-16T15:26:15.100Z,21.40
2019-04-16T15:28:51.761Z,21.40
2019-04-16T15:31:43.089Z,21.20
2019-04-16T15:34:15.545Z,21.20
2019-04-16T15:36:55.066Z,21.20
2019-04-16T15:39:35.376Z,21.10
2019-04-16T15:42:18.453Z,21.10
2019-04-16T15:45:01.304Z,21.00
2019-04-16T15:48:04.489Z,21.00
2019-04-16T15:50:55.074Z,20.90
2019-04-16T15:53:47.773Z,20.80
2019-04-16T15:56:34.448Z,20.90
2019-04-16T15:59:12.253Z,21.00
2019-04-16T16:02:03.720Z,21.00
2019-04-16T16:04:55.417Z,21.10
2019-04-16T16:07:27.420Z,21.00
2019-04-16T16:12:40.426Z,20.90
2019-04-16T16:15:10.462Z,20.90
2019-04-16T16:17:39.461Z,20.80
2019-04-16T16:20:10.305Z,20.60
2019-04-16T16:22:39.808Z,20.40
2019-04-16T16:25:14.077Z,20.30
2019-04-16T16:27:46.973Z,20.30
2019-04-16T16:30:15.020Z,20.30
2019-04-16T16:32:44.718Z,20.30
2019-04-16T16:35:16.982Z,20.30
2019-04-16T16:37:44.659Z,20.20
2019-04-16T16:40:15.293Z,20.00
2019-04-16T16:42:44.364Z,19.80
2019-04-16T16:45:13.723Z,19.60
2019-04-16T16:47:43.022Z,19.50
2019-04-16T16:50:14.963Z,19.40
2019-04-16T16:53:01.601Z,19.30
2019-04-16T16:55:43.523Z,19.20
2019-04-16T16:58:34.698Z,19.00
2019-04-16T17:01:21.564Z,18.80
2019-04-16T17:03:55.243Z,18.70
2019-04-16T17:06:24.588Z,18.60
2019-04-16T17:08:53.515Z,18.50
2019-04-16T17:11:22.793Z,18.40
2019-04-16T17:13:52.003Z,18.30
2019-04-16T17:16:21.362Z,18.20
2019-04-16T17:18:50.358Z,18.00
2019-04-16T17:21:19.703Z,17.90
2019-04-16T17:23:48.667Z,17.80
2019-04-16T17:26:17.626Z,17.60
2019-04-16T17:28:46.664Z,17.40
2019-04-16T17:31:16.083Z,17.10
2019-04-16T17:33:45.362Z,16.90
2019-04-16T17:36:14.582Z,16.50
2019-04-16T17:38:43.506Z,16.00
2019-04-16T17:41:15.714Z,15.70
2019-04-16T17:44:00.433Z,15.60
2019-04-16T17:46:40.307Z,15.60
2019-04-16T17:49:16.846Z,15.60
2019-04-16T17:52:00.905Z,15.60
2019-04-16T17:54:37.416Z,15.50
2019-04-16T17:57:28.927Z,15.50
2019-04-16T18:00:06.907Z,15.40
2019-04-16T18:02:53.083Z,15.40
2019-04-16T18:05:28.797Z,15.40
2019-04-16T18:08:21.727Z,15.30
2019-04-16T18:11:10.016Z,15.20
2019-04-16T18:13:50.453Z,15.10
2019-04-16T18:16:36.216Z,15.10
2019-04-16T18:19:11.420Z,15.00
2019-04-16T18:21:45.522Z,14.90
2019-04-16T18:24:33.647Z,14.90
2019-04-16T18:27:29.185Z,14.80
2019-04-16T18:30:26.203Z,14.70
2019-04-16T18:33:14.891Z,14.60
2019-04-16T18:35:54.670Z,14.50
2019-04-16T18:38:45.639Z,14.50
2019-04-16T18:41:32.627Z,14.40
2019-04-16T18:44:19.894Z,14.40
2019-04-16T18:47:14.290Z,14.30
2019-04-16T18:49:44.083Z,14.30
2019-04-16T18:52:12.940Z,14.20
2019-04-16T18:54:41.959Z,14.10
2019-04-16T18:57:10.983Z,14.10
2019-04-16T18:59:39.893Z,14.00
2019-04-16T19:02:10.531Z,14.00
2019-04-16T19:04:39.630Z,14.00
2019-04-16T19:07:11.244Z,13.90
2019-04-16T19:09:40.176Z,13.90
2019-04-16T19:12:09.228Z,13.80
2019-04-16T19:14:38.264Z,13.80
2019-04-16T19:17:08.155Z,13.70
2019-04-16T19:19:36.977Z,13.70
2019-04-16T19:22:07.933Z,13.60
2019-04-16T19:24:37.275Z,13.50
2019-04-16T19:27:06.894Z,13.50
2019-04-16T19:29:38.121Z,13.40
2019-04-16T19:32:08.030Z,13.30
2019-04-16T19:34:40.955Z,13.30
2019-04-16T19:37:08.623Z,13.20
2019-04-16T19:39:37.563Z,13.10
2019-04-16T19:42:06.681Z,13.10
2019-04-16T19:44:39.678Z,13.00
2019-04-16T19:47:06.809Z,12.90
2019-04-16T19:49:36.243Z,12.90
2019-04-16T19:52:05.470Z,12.80
2019-04-16T19:54:35.289Z,12.70
2019-04-16T19:57:04.313Z,12.70
2019-04-16T19:59:33.242Z,12.60
2019-04-16T20:02:02.420Z,12.50
2019-04-16T20:04:31.390Z,12.50
2019-04-16T20:07:01.910Z,12.40
